Time;durP1;ratioP1;P1;durP2;ratioP2;P2;SDS_P1;SDS_P2;PMS_P1;PMS_P2;Temp;Humidity;BMP_temperature;BMP_pressure;BME280_temperature;BME280_humidity;BME280_pressure;Samples;Min_cycle;Max_cycle;Signal;HPM_P1;HPM_P2
2022/12/14 00:02:31;;;;;;;4.55;2.83;;;;;;;-145.06;100.00;60892.56;6029173;23;20008;-91
2022/12/14 00:05:10;;;;;;;5.00;3.15;;;;;;;-145.06;100.00;60892.56;6029281;23;20004;-90
2022/12/14 00:07:49;;;;;;;4.18;2.63;;;;;;;-145.06;100.00;60892.56;6029332;22;20012;-89
2022/12/14 00:10:28;;;;;;;5.03;2.95;;;;;;;-145.06;100.00;60892.56;6029013;23;20034;-90
2022/12/14 00:13:10;;;;;;;4.50;2.95;;;;;;;-145.06;100.00;60892.56;6028653;23;20068;-89
2022/12/14 00:15:49;;;;;;;5.40;3.15;;;;;;;-145.06;100.00;60892.56;6029263;23;20004;-90
2022/12/14 00:18:28;;;;;;;4.20;3.03;;;;;;;-145.06;100.00;60892.56;6028986;23;20008;-89
2022/12/14 00:21:09;;;;;;;5.35;2.92;;;;;;;-145.06;100.00;60892.56;6027996;23;20004;-91
2022/12/14 00:23:50;;;;;;;4.63;2.80;;;;;;;-145.06;100.00;60892.56;6027686;23;20000;-91
2022/12/14 00:26:31;;;;;;;5.32;2.85;;;;;;;-145.06;100.00;60892.56;6028921;22;20016;-90
2022/12/14 00:29:10;;;;;;;7.10;3.10;;;;;;;-145.06;100.00;60892.56;6029183;23;20008;-89
2022/12/14 00:31:49;;;;;;;5.00;2.97;;;;;;;-145.06;100.00;60892.56;6028864;23;20008;-89
2022/12/14 00:34:30;;;;;;;5.35;2.90;;;;;;;-145.06;100.00;60892.56;6028238;23;20000;-90
2022/12/14 00:37:09;;;;;;;;;;;;;;;-145.06;100.00;60892.56;6029126;22;20008;-89
2022/12/14 00:39:48;;;;;;;4.65;2.63;;;;;;;-145.06;100.00;60892.56;6028782;23;19904;-91
2022/12/14 00:42:27;;;;;;;5.18;2.55;;;;;;;-145.06;100.00;60892.56;6028540;23;20007;-89
2022/12/14 00:45:07;;;;;;;4.63;2.60;;;;;;;-145.06;100.00;60892.56;6028612;23;20000;-90
2022/12/14 00:47:46;;;;;;;4.80;2.70;;;;;;;-145.06;100.00;60892.56;6028442;22;20271;-90
2022/12/14 00:50:25;;;;;;;6.60;3.50;;;;;;;-145.06;100.00;60892.56;6028217;23;20091;-89
2022/12/14 00:53:04;;;;;;;5.53;3.23;;;;;;;-145.06;100.00;60892.56;6028331;23;20216;-89
2022/12/14 00:55:45;;;;;;;7.40;3.38;;;;;;;-145.06;100.00;60892.56;6028893;23;20000;-89
2022/12/14 00:58:36;;;;;;;4.80;2.72;;;;;;;-145.06;100.00;60892.56;6029127;23;20012;-90
2022/12/14 01:01:15;;;;;;;6.53;3.30;;;;;;;-145.06;100.00;60892.56;6028721;23;20012;-89
2022/12/14 01:04:15;;;;;;;7.07;3.70;;;;;;;-145.06;100.00;60892.56;6028892;23;20004;-90
2022/12/14 01:06:53;;;;;;;6.63;3.83;;;;;;;-145.06;100.00;60892.56;6030051;22;20008;-91
2022/12/14 01:09:32;;;;;;;5.88;3.22;;;;;;;-145.06;100.00;60892.56;6029412;23;20008;-88
2022/12/14 01:12:12;;;;;;;6.03;3.58;;;;;;;-145.06;100.00;60892.56;6028741;23;20004;-88
2022/12/14 01:14:51;;;;;;;5.35;3.33;;;;;;;-145.06;100.00;60892.56;6029591;23;20085;-91
2022/12/14 01:17:30;;;;;;;4.90;3.10;;;;;;;-145.06;100.00;60892.56;6029370;22;20007;-89
2022/12/14 01:20:09;;;;;;;5.07;3.33;;;;;;;-145.06;100.00;60892.56;6029438;23;20235;-90
2022/12/14 01:22:53;;;;;;;6.03;3.40;;;;;;;-145.06;100.00;60892.56;6029112;23;20008;-90
2022/12/14 01:25:33;;;;;;;4.65;3.15;;;;;;;-145.06;100.00;60892.56;6028464;23;20300;-90
2022/12/14 01:28:12;;;;;;;5.18;3.00;;;;;;;-145.06;100.00;60892.56;6028940;22;20008;-90
2022/12/14 01:30:51;;;;;;;5.22;2.97;;;;;;;-145.06;100.00;60892.56;6028719;23;20016;-90
2022/12/14 01:33:30;;;;;;;6.40;3.65;;;;;;;-145.06;100.00;60892.56;6029152;23;20004;-90
2022/12/14 01:36:15;;;;;;;6.93;4.07;;;;;;;-145.06;100.00;60892.56;6028563;22;20178;-92
2022/12/14 01:38:56;;;;;;;5.40;3.27;;;;;;;-145.06;100.00;60892.56;6028750;23;20004;-91
2022/12/14 01:41:48;;;;;;;6.70;3.27;;;;;;;-145.06;100.00;60892.56;6028865;23;20439;-89
2022/12/14 01:44:27;;;;;;;6.93;4.00;;;;;;;-145.06;100.00;60892.56;6029163;23;20008;-91
2022/12/14 01:47:35;;;;;;;5.70;3.65;;;;;;;-145.06;100.00;60892.56;6028778;22;20016;-91
2022/12/14 01:50:28;;;;;;;5.77;3.60;;;;;;;-145.06;100.00;60892.56;6030492;23;20016;-91
2022/12/14 01:53:13;;;;;;;5.80;3.73;;;;;;;-145.06;100.00;60892.56;6028580;23;20587;-89
2022/12/14 01:55:54;;;;;;;8.00;3.57;;;;;;;-145.06;100.00;60892.56;6029257;23;20004;-91
2022/12/14 01:58:33;;;;;;;6.87;3.57;;;;;;;-145.06;100.00;60892.56;6028727;23;20008;-89
2022/12/14 02:01:14;;;;;;;5.70;3.50;;;;;;;-145.06;100.00;60892.56;6028516;23;20012;-91
2022/12/14 02:03:53;;;;;;;;;;;;;;;-145.06;100.00;60892.56;6029810;23;20001;-89
2022/12/14 02:06:36;;;;;;;5.90;3.63;;;;;;;-145.06;100.00;60892.56;6029699;22;19923;-90
2022/12/14 02:09:24;;;;;;;6.83;3.80;;;;;;;-145.06;100.00;60892.56;6028687;23;20318;-90
2022/12/14 02:12:11;;;;;;;7.80;3.67;;;;;;;-145.06;100.00;60892.56;6029616;23;20008;-90
2022/12/14 02:14:51;;;;;;;5.93;3.70;;;;;;;-145.06;100.00;60892.56;6028072;23;20023;-88
2022/12/14 02:17:31;;;;;;;6.73;3.73;;;;;;;-145.06;100.00;60892.56;6028272;22;20035;-91
2022/12/14 02:20:12;;;;;;;6.50;3.97;;;;;;;-145.06;100.00;60892.56;6028430;23;20745;-89
2022/12/14 02:23:10;;;;;;;6.10;3.23;;;;;;;-145.06;100.00;60892.56;6029015;23;20083;-89
2022/12/14 02:26:22;;;;;;;5.67;3.43;;;;;;;-145.06;100.00;60892.56;6028728;23;20001;-91
2022/12/14 02:29:19;;;;;;;6.90;3.90;;;;;;;-145.06;100.00;60892.56;6029168;23;20008;-91
2022/12/14 02:32:23;;;;;;;7.43;3.83;;;;;;;-145.06;100.00;60892.56;6030062;23;20012;-89
2022/12/14 02:35:29;;;;;;;5.80;3.60;;;;;;;-145.06;100.00;60892.56;6030169;23;20555;-90
2022/12/14 02:38:36;;;;;;;4.40;2.77;;;;;;;-145.06;100.00;60892.56;6030671;22;20008;-91
2022/12/14 02:41:37;;;;;;;4.43;3.03;;;;;;;-145.06;100.00;60892.56;6030951;23;20004;-90
2022/12/14 02:44:38;;;;;;;5.17;2.60;;;;;;;-145.06;100.00;60892.56;6029957;23;20008;-89
2022/12/14 02:47:27;;;;;;;4.67;2.57;;;;;;;-145.06;100.00;60892.56;6029986;22;20486;-90
2022/12/14 02:50:05;;;;;;;4.03;2.73;;;;;;;-145.06;100.00;60892.56;6030353;23;20003;-90
2022/12/14 02:53:34;;;;;;;3.83;2.55;;;;;;;-145.06;100.00;60892.56;6030487;23;20000;-90
2022/12/14 02:56:20;;;;;;;5.77;3.13;;;;;;;-145.06;100.00;60892.56;5892253;23;20005;-90
2022/12/14 02:59:02;;;;;;;4.97;3.03;;;;;;;-145.06;100.00;60892.56;5892331;23;20010;-90
2022/12/14 03:01:45;;;;;;;4.88;2.85;;;;;;;-145.06;100.00;60892.56;6017484;23;20004;-89
2022/12/14 03:04:24;;;;;;;4.00;2.80;;;;;;;-145.06;100.00;60892.56;6030382;23;20439;-89
2022/12/14 03:07:33;;;;;;;4.90;2.75;;;;;;;-145.06;100.00;60892.56;6030135;22;20328;-90
2022/12/14 03:10:40;;;;;;;6.18;3.10;;;;;;;-145.06;100.00;60892.56;6011351;23;20087;-88
2022/12/14 03:13:28;;;;;;;4.47;2.60;;;;;;;-145.06;100.00;60892.56;6030546;23;20024;-90
2022/12/14 03:16:17;;;;;;;3.97;2.70;;;;;;;-145.06;100.00;60892.56;6030122;22;20449;-89
2022/12/14 03:19:02;;;;;;;5.82;3.10;;;;;;;-145.06;100.00;60892.56;6030473;23;20008;-90
2022/12/14 03:21:50;;;;;;;4.63;2.73;;;;;;;-145.06;100.00;60892.56;6030385;23;20004;-90
2022/12/14 03:24:40;;;;;;;4.78;2.88;;;;;;;-145.06;100.00;60892.56;6030498;23;20000;-90
2022/12/14 03:27:45;;;;;;;5.40;2.97;;;;;;;-145.06;100.00;60892.56;6030329;22;20008;-90
2022/12/14 03:30:24;;;;;;;4.83;3.27;;;;;;;-145.06;100.00;60892.56;6030192;23;20000;-91
2022/12/14 03:33:09;;;;;;;6.18;3.20;;;;;;;-145.06;100.00;60892.56;6030543;23;20004;-91
2022/12/14 03:36:07;;;;;;;5.17;3.00;;;;;;;-145.06;100.00;60892.56;6030111;23;19996;-90
2022/12/14 03:38:53;;;;;;;3.77;2.60;;;;;;;-145.06;100.00;60892.56;6030736;23;20012;-89
2022/12/14 03:41:59;;;;;;;5.70;2.97;;;;;;;-145.06;100.00;60892.56;6030754;23;20430;-93
2022/12/14 03:44:56;;;;;;;4.83;2.53;;;;;;;-145.06;100.00;60892.56;6029961;23;20008;-91
2022/12/14 03:47:56;;;;;;;4.93;2.45;;;;;;;-145.06;100.00;60892.56;6029867;22;20011;-90
2022/12/14 03:51:07;;;;;;;3.03;1.90;;;;;;;-145.06;100.00;60892.56;6030203;23;20272;-90
2022/12/14 03:54:06;;;;;;;4.00;2.40;;;;;;;-145.06;100.00;60892.56;6029573;23;20008;-90
2022/12/14 03:56:57;;;;;;;3.53;2.23;;;;;;;-145.06;100.00;60892.56;6029360;22;20004;-90
2022/12/14 03:59:53;;;;;;;2.75;1.83;;;;;;;-145.06;100.00;60892.56;6029845;23;20458;-90
2022/12/14 04:02:59;;;;;;;3.42;2.20;;;;;;;-145.06;100.00;60892.56;6029932;23;20003;-92
2022/12/14 04:05:38;;;;;;;3.20;1.92;;;;;;;-145.06;100.00;60892.56;6052330;22;20063;-90
2022/12/14 04:08:37;;;;;;;3.22;2.05;;;;;;;-145.06;100.00;60892.56;6038189;23;20087;-90
2022/12/14 04:20:35;;;;;;;3.65;2.08;;;;;;;-145.06;100.00;60892.56;6041319;23;20007;-90
2022/12/14 04:26:30;;;;;;;4.78;3.00;;;;;;;-145.06;100.00;60892.56;6040537;22;20008;-90
2022/12/14 04:32:22;;;;;;;4.40;2.50;;;;;;;-145.06;100.00;60892.56;6040963;23;20008;-90
2022/12/14 04:35:13;;;;;;;3.83;2.63;;;;;;;-145.06;100.00;60892.56;6029953;23;20444;-90
2022/12/14 04:37:59;;;;;;;3.67;2.30;;;;;;;-145.06;100.00;60892.56;6029814;22;20056;-90
2022/12/14 04:40:44;;;;;;;3.93;2.70;;;;;;;-145.06;100.00;60892.56;6028607;23;20008;-90
2022/12/14 04:43:28;;;;;;;4.13;2.17;;;;;;;-145.06;100.00;60892.56;6029155;23;20011;-90
2022/12/14 04:46:11;;;;;;;4.43;2.30;;;;;;;-145.06;100.00;60892.56;6029639;22;20438;-89
2022/12/14 04:49:09;;;;;;;3.67;2.28;;;;;;;-145.06;100.00;60892.56;6029460;23;20067;-91
2022/12/14 04:52:03;;;;;;;3.97;2.27;;;;;;;-145.06;100.00;60892.56;6029459;23;20470;-90
2022/12/14 04:54:54;;;;;;;5.63;2.70;;;;;;;-145.06;100.00;60892.56;6030013;23;20418;-90
2022/12/14 04:57:46;;;;;;;4.07;2.33;;;;;;;-145.06;100.00;60892.56;6030573;22;20027;-92
2022/12/14 05:00:30;;;;;;;4.00;2.23;;;;;;;-145.06;100.00;60892.56;6032058;23;20012;-89
2022/12/14 05:03:12;;;;;;;3.67;2.33;;;;;;;-145.06;100.00;60892.56;6028539;23;20008;-90
2022/12/14 05:05:54;;;;;;;3.70;2.40;;;;;;;-145.06;100.00;60892.56;6042378;23;20007;-90
2022/12/14 05:08:33;;;;;;;3.78;2.50;;;;;;;-145.06;100.00;60892.56;6032470;23;20000;-91
2022/12/14 05:11:25;;;;;;;3.90;2.53;;;;;;;-145.06;100.00;60892.56;6032438;23;20008;-91
2022/12/14 05:14:10;;;;;;;2.53;1.77;;;;;;;-145.06;100.00;60892.56;6030657;23;20000;-91
2022/12/14 05:16:49;;;;;;;4.00;2.30;;;;;;;-145.06;100.00;60892.56;6031151;22;20004;-91
2022/12/14 05:19:31;;;;;;;2.58;1.70;;;;;;;-145.06;100.00;60892.56;6032755;23;20012;-91
2022/12/14 05:22:10;;;;;;;3.72;2.28;;;;;;;-145.06;100.00;60892.56;6030171;23;20008;-90
2022/12/14 05:24:49;;;;;;;3.60;2.60;;;;;;;-145.06;100.00;60892.56;6029808;23;20012;-89
2022/12/14 05:27:28;;;;;;;3.33;2.03;;;;;;;-145.06;100.00;60892.56;6029057;22;20327;-88
2022/12/14 05:30:08;;;;;;;3.33;2.40;;;;;;;-145.06;100.00;60892.56;6027995;23;20008;-91
2022/12/14 05:32:47;;;;;;;3.03;1.98;;;;;;;-145.06;100.00;60892.56;6028805;23;20039;-91
2022/12/14 05:35:27;;;;;;;3.63;2.03;;;;;;;-145.06;100.00;60892.56;6029018;23;20091;-90
2022/12/14 05:38:06;;;;;;;2.63;1.80;;;;;;;-145.06;100.00;60892.56;6028475;22;20035;-90
2022/12/14 05:40:45;;;;;;;3.40;2.23;;;;;;;-145.06;100.00;60892.56;6029653;23;20008;-91
2022/12/14 05:43:23;;;;;;;2.33;1.60;;;;;;;-145.06;100.00;60892.56;6030469;23;20004;-91
2022/12/14 05:46:06;;;;;;;2.95;1.92;;;;;;;-145.06;100.00;60892.56;6030980;22;20239;-91
2022/12/14 05:49:06;;;;;;;;;;;;;;;;;;;;;
2022/12/14 05:51:47;;;;;;;3.60;2.17;;;;;;;-145.06;100.00;60892.56;6042170;23;20008;-91
2022/12/14 05:54:29;;;;;;;3.55;2.13;;;;;;;-145.06;100.00;60892.56;6030352;23;20083;-90
2022/12/14 05:57:08;;;;;;;3.35;1.98;;;;;;;-145.06;100.00;60892.56;6029952;22;20004;-92
2022/12/14 05:59:50;;;;;;;3.42;2.33;;;;;;;-145.06;100.00;60892.56;6030929;23;20004;-91
2022/12/14 06:02:40;;;;;;;3.42;2.20;;;;;;;-145.06;100.00;60892.56;6030725;23;20083;-92
2022/12/14 06:05:19;;;;;;;2.88;2.10;;;;;;;-145.06;100.00;60892.56;6030063;23;20012;-91
2022/12/14 06:07:58;;;;;;;6.10;2.40;;;;;;;-145.06;100.00;60892.56;6033213;22;20012;-92
2022/12/14 06:10:37;;;;;;;3.10;2.17;;;;;;;-145.06;100.00;60892.56;6033594;23;20418;-92
2022/12/14 06:13:16;;;;;;;2.95;1.83;;;;;;;-145.06;100.00;60892.56;6032950;23;20039;-90
2022/12/14 06:16:18;;;;;;;3.50;2.10;;;;;;;-145.06;100.00;60892.56;6032445;22;20008;-90
2022/12/14 06:19:03;;;;;;;4.15;2.22;;;;;;;-145.06;100.00;60892.56;6032334;23;20004;-92
2022/12/14 06:21:42;;;;;;;4.68;2.42;;;;;;;-145.06;100.00;60892.56;6032453;23;20008;-92
2022/12/14 06:24:22;;;;;;;3.35;2.13;;;;;;;-145.06;100.00;60892.56;6033060;23;20009;-92
2022/12/14 06:27:01;;;;;;;3.35;2.40;;;;;;;-145.06;100.00;60892.56;6033019;22;20012;-92
2022/12/14 06:29:40;;;;;;;2.92;2.10;;;;;;;-145.06;100.00;60892.56;6033074;23;20060;-92
2022/12/14 06:32:20;;;;;;;3.50;2.10;;;;;;;-145.06;100.00;60892.56;6032967;23;20132;-93
2022/12/14 06:34:59;;;;;;;2.70;2.05;;;;;;;-145.06;100.00;60892.56;6032473;23;20004;-91
2022/12/14 06:37:38;;;;;;;3.40;2.38;;;;;;;-145.06;100.00;60892.56;6031995;22;20004;-90
2022/12/14 06:40:18;;;;;;;3.35;1.90;;;;;;;-145.06;100.00;60892.56;6032904;23;20008;-92
2022/12/14 06:43:00;;;;;;;3.10;2.10;;;;;;;-145.06;100.00;60892.56;6032811;23;20384;-91
2022/12/14 06:45:39;;;;;;;3.15;1.88;;;;;;;-145.06;100.00;60892.56;6032171;23;20008;-92
2022/12/14 06:48:20;;;;;;;4.20;2.50;;;;;;;-145.06;100.00;60892.56;6032924;23;20091;-90
2022/12/14 06:51:03;;;;;;;3.40;2.15;;;;;;;-145.06;100.00;60892.56;6031907;23;20008;-92
2022/12/14 06:53:43;;;;;;;3.25;2.13;;;;;;;-145.06;100.00;60892.56;6032116;23;20008;-91
2022/12/14 06:56:24;;;;;;;3.75;2.30;;;;;;;-145.06;100.00;60892.56;6031816;22;20012;-90
2022/12/14 06:59:12;;;;;;;3.63;2.33;;;;;;;-145.06;100.00;60892.56;6032805;23;20028;-91
2022/12/14 07:01:54;;;;;;;2.35;1.92;;;;;;;-145.06;100.00;60892.56;6032330;23;20004;-92
2022/12/14 07:04:39;;;;;;;3.65;2.20;;;;;;;-145.06;100.00;60892.56;6033282;23;20035;-91
2022/12/14 07:07:28;;;;;;;3.10;2.10;;;;;;;-145.06;100.00;60892.56;6032902;22;20012;-91
2022/12/14 07:10:09;;;;;;;2.70;2.05;;;;;;;-145.06;100.00;60892.56;6032041;23;20004;-91
2022/12/14 07:12:51;;;;;;;4.55;2.55;;;;;;;-145.06;100.00;60892.56;6032716;23;20007;-91
2022/12/14 07:15:33;;;;;;;3.72;1.90;;;;;;;-145.06;100.00;60892.56;6031772;23;20027;-91
2022/12/14 07:18:16;;;;;;;3.45;2.20;;;;;;;-145.06;100.00;60892.56;6032020;22;20075;-91
2022/12/14 07:21:25;;;;;;;2.63;1.90;;;;;;;-145.06;100.00;60892.56;6032959;23;20422;-91
2022/12/14 07:24:13;;;;;;;2.70;1.80;;;;;;;-145.06;100.00;60892.56;5998361;23;20004;-91
2022/12/14 07:27:02;;;;;;;;;;;;;;;;;;;;;
2022/12/14 07:29:52;;;;;;;;;;;;;;;;;;;;;
2022/12/14 07:32:48;;;;;;;;;;;;;;;;;;;;;
2022/12/14 07:35:34;;;;;;;3.78;1.90;;;;;;;-145.06;100.00;60892.56;6044266;23;20004;-91
2022/12/14 07:38:26;;;;;;;2.78;1.70;;;;;;;-145.06;100.00;60892.56;6032375;23;20035;-92
2022/12/14 07:41:30;;;;;;;3.40;2.00;;;;;;;-145.06;100.00;60892.56;6032774;23;20004;-92
2022/12/14 07:44:15;;;;;;;2.72;2.00;;;;;;;-145.06;100.00;60892.56;6033067;23;20000;-92
2022/12/14 07:47:01;;;;;;;2.63;1.80;;;;;;;-145.06;100.00;60892.56;6032762;22;20004;-92
2022/12/14 07:49:52;;;;;;;3.47;2.00;;;;;;;-145.06;100.00;60892.56;6043499;23;20008;-91
2022/12/14 07:52:39;;;;;;;3.20;1.98;;;;;;;-145.06;100.00;60892.56;6032459;23;20004;-92
2022/12/14 07:55:30;;;;;;;2.90;1.88;;;;;;;-145.06;100.00;60892.56;6032743;23;20008;-91
2022/12/14 07:58:27;;;;;;;;;;;;;;;;;;;;;
2022/12/14 08:01:44;;;;;;;2.90;1.88;;;;;;;-145.06;100.00;60892.56;6043546;23;20323;-91
2022/12/14 08:08:05;;;;;;;3.65;2.17;;;;;;;-145.06;100.00;60892.56;6004285;22;20435;-92
2022/12/14 08:10:50;;;;;;;3.17;2.22;;;;;;;-145.06;100.00;60892.56;6032201;23;20008;-92
2022/12/14 08:13:37;;;;;;;3.60;2.42;;;;;;;-145.06;100.00;60892.56;6032692;23;20008;-92
2022/12/14 08:16:27;;;;;;;3.03;1.98;;;;;;;-145.06;100.00;60892.56;6032855;22;20011;-93
2022/12/14 08:19:24;;;;;;;3.58;2.15;;;;;;;-145.06;100.00;60892.56;6032698;23;20016;-92
2022/12/14 08:22:34;;;;;;;3.50;2.30;;;;;;;-145.06;100.00;60892.56;6032672;23;20004;-92
2022/12/14 08:25:30;;;;;;;3.70;2.20;;;;;;;-145.06;100.00;60892.56;6032446;23;20011;-92
2022/12/14 08:28:23;;;;;;;;;;;;;;;;;;;;;
2022/12/14 08:31:39;;;;;;;;;;;;;;;;;;;;;
2022/12/14 08:38:02;;;;;;;;;;;;;;;;;;;;;
2022/12/14 08:44:45;;;;;;;2.65;1.70;;;;;;;-145.06;100.00;60892.56;6039389;22;20012;-91
2022/12/14 08:47:53;;;;;;;2.42;1.67;;;;;;;-145.06;100.00;60892.56;6033778;22;20063;-92
2022/12/14 08:51:31;;;;;;;;;;;;;;;;;;;;;
2022/12/14 08:54:51;;;;;;;2.28;1.75;;;;;;;-145.06;100.00;60892.56;6043098;23;20078;-92
2022/12/14 09:06:04;;;;;;;;;;;;;;;;;;;;;
2022/12/14 09:26:57;;;;;;;;;;;;;;;;;;;;;
2022/12/14 09:37:43;;;;;;;2.70;1.80;;;;;;;-145.06;100.00;60892.56;5813538;23;20542;-92
2022/12/14 09:48:33;;;;;;;2.63;1.88;;;;;;;-145.06;100.00;60892.56;5812568;23;20379;-91
2022/12/14 10:03:12;;;;;;;;;;;;;;;;;;;;;
2022/12/14 11:20:15;;;;;;;;;;;;;;;;;;;;;
2022/12/14 11:23:44;;;;;;;2.75;1.90;;;;;;;-145.06;100.00;60892.56;5832843;23;20023;-91
2022/12/14 11:33:52;;;;;;;3.85;2.10;;;;;;;-145.06;100.00;60892.56;6008308;23;20001;-91
2022/12/14 11:36:55;;;;;;;;;;;;;;;;;;;;;
2022/12/14 11:39:51;;;;;;;;;;;;;;;;;;;;;
2022/12/14 11:43:14;;;;;;;3.05;1.95;;;;;;;-145.06;100.00;60892.56;6013749;23;20008;-90
2022/12/14 11:46:19;;;;;;;3.13;1.95;;;;;;;-145.06;100.00;60892.56;5980412;23;20016;-91
2022/12/14 11:49:47;;;;;;;3.22;1.85;;;;;;;-145.06;100.00;60892.56;5981789;23;20415;-91
2022/12/14 11:52:46;;;;;;;3.67;2.20;;;;;;;-145.06;100.00;60892.56;5981895;23;20012;-91
2022/12/14 11:55:43;;;;;;;4.30;2.40;;;;;;;-145.06;100.00;60892.56;5981576;23;20316;-90
2022/12/14 11:58:55;;;;;;;3.38;2.15;;;;;;;-145.06;100.00;60892.56;5982247;23;20039;-89
2022/12/14 12:02:22;;;;;;;2.75;1.98;;;;;;;-145.06;100.00;60892.56;5981697;23;20008;-89
2022/12/14 12:09:34;;;;;;;;;;;;;;;;;;;;;
2022/12/14 12:12:48;;;;;;;4.40;2.30;;;;;;;-145.06;100.00;60892.56;6013181;23;20143;-90
2022/12/14 12:16:20;;;;;;;4.00;2.22;;;;;;;-145.06;100.00;60892.56;6002269;23;20005;-90
2022/12/14 12:19:31;;;;;;;;;;;;;;;;;;;;;
2022/12/14 12:22:22;;;;;;;3.00;2.00;;;;;;;-145.06;100.00;60892.56;6003135;23;20009;-90
2022/12/14 12:25:12;;;;;;;3.60;2.13;;;;;;;-145.06;100.00;60892.56;6001343;23;20095;-90
2022/12/14 12:28:22;;;;;;;3.97;2.40;;;;;;;-145.06;100.00;60892.56;6001755;23;20004;-90
2022/12/14 12:31:08;;;;;;;2.33;1.88;;;;;;;-145.06;100.00;60892.56;6002019;23;20064;-90
2022/12/14 12:34:18;;;;;;;3.30;2.05;;;;;;;-145.06;100.00;60892.56;6002043;23;20008;-90
2022/12/14 12:37:09;;;;;;;3.60;1.90;;;;;;;-145.06;100.00;60892.56;6001932;23;20005;-90
2022/12/14 12:40:02;;;;;;;3.30;2.30;;;;;;;-145.06;100.00;60892.56;6002253;23;20008;-90
2022/12/14 12:43:18;;;;;;;2.85;1.95;;;;;;;-145.06;100.00;60892.56;6001729;23;20008;-91
2022/12/14 12:46:13;;;;;;;2.55;1.85;;;;;;;-145.06;100.00;60892.56;6001964;23;20009;-89
2022/12/14 12:49:09;;;;;;;3.80;1.85;;;;;;;-145.06;100.00;60892.56;6002513;23;20377;-90
2022/12/14 12:52:07;;;;;;;4.80;2.25;;;;;;;-145.06;100.00;60892.56;6001564;23;20008;-92
2022/12/14 12:55:07;;;;;;;3.97;2.47;;;;;;;-145.06;100.00;60892.56;6002496;23;20075;-90
2022/12/14 13:00:41;;;;;;;3.38;1.83;;;;;;;-145.06;100.00;60892.56;6020303;22;20012;-92
2022/12/14 13:03:44;;;;;;;4.15;2.78;;;;;;;-145.06;100.00;60892.56;6031003;23;20008;-90
2022/12/14 13:06:55;;;;;;;3.60;2.15;;;;;;;-145.06;100.00;60892.56;6024361;23;20024;-90
2022/12/14 13:09:46;;;;;;;4.57;2.50;;;;;;;-145.06;100.00;60892.56;5981966;23;20000;-91
2022/12/14 13:12:40;;;;;;;3.35;2.35;;;;;;;-145.06;100.00;60892.56;6001591;23;20297;-89
2022/12/14 13:19:36;;;;;;;3.47;2.20;;;;;;;-145.06;100.00;60892.56;6012024;23;20008;-90
2022/12/14 13:22:27;;;;;;;3.28;2.17;;;;;;;-145.06;100.00;60892.56;6001354;23;20308;-90
2022/12/14 13:25:43;;;;;;;3.33;2.15;;;;;;;-145.06;100.00;60892.56;6001204;23;20004;-90
2022/12/14 13:28:34;;;;;;;4.40;2.45;;;;;;;-145.06;100.00;60892.56;6001565;23;20493;-91
2022/12/14 13:31:49;;;;;;;;;;;;;;;;;;;;;
2022/12/14 13:35:04;;;;;;;3.90;2.63;;;;;;;-145.06;100.00;60892.56;6012469;23;20075;-89
2022/12/14 13:41:31;;;;;;;5.30;2.15;;;;;;;-145.06;100.00;60892.56;6011781;23;20008;-90
2022/12/14 13:44:25;;;;;;;4.90;1.98;;;;;;;-145.06;100.00;60892.56;6001480;23;20009;-89
2022/12/14 13:47:14;;;;;;;3.03;2.00;;;;;;;-145.06;100.00;60892.56;6000387;23;20426;-92
2022/12/14 13:50:06;;;;;;;3.53;2.07;;;;;;;-145.06;100.00;60892.56;6001654;23;20012;-90
2022/12/14 13:53:14;;;;;;;3.15;2.08;;;;;;;-145.06;100.00;60892.56;6000683;23;20567;-91
2022/12/14 13:55:58;;;;;;;5.57;2.17;;;;;;;-145.06;100.00;60892.56;5984267;23;20004;-90
2022/12/14 13:58:47;;;;;;;4.15;2.65;;;;;;;-145.06;100.00;60892.56;6001145;23;20012;-90
2022/12/14 14:01:44;;;;;;;4.57;2.55;;;;;;;-145.06;100.00;60892.56;6000900;23;20495;-90
2022/12/14 14:05:01;;;;;;;4.78;2.50;;;;;;;-145.06;100.00;60892.56;6000986;23;20009;-90
2022/12/14 14:08:33;;;;;;;3.45;2.20;;;;;;;-145.06;100.00;60892.56;6000575;23;20005;-91
2022/12/14 14:11:22;;;;;;;4.15;2.40;;;;;;;-145.06;100.00;60892.56;6000731;23;20028;-90
2022/12/14 14:14:24;;;;;;;3.80;2.25;;;;;;;-145.06;100.00;60892.56;6001663;23;20000;-91
2022/12/14 14:17:22;;;;;;;3.70;2.13;;;;;;;-145.06;100.00;60892.56;6000812;23;20001;-89
2022/12/14 14:20:39;;;;;;;4.38;2.47;;;;;;;-145.06;100.00;60892.56;6001689;23;20422;-90
2022/12/14 14:23:20;;;;;;;3.47;2.28;;;;;;;-145.06;100.00;60892.56;6001319;23;20005;-89
2022/12/14 14:26:20;;;;;;;3.35;2.10;;;;;;;-145.06;100.00;60892.56;6000919;23;20008;-89
2022/12/14 14:29:20;;;;;;;4.32;2.88;;;;;;;-145.06;100.00;60892.56;6002313;23;20052;-91
2022/12/14 14:32:03;;;;;;;6.47;2.95;;;;;;;-145.06;100.00;60892.56;6003428;23;20008;-91
2022/12/14 14:34:42;;;;;;;5.85;3.00;;;;;;;-145.06;100.00;60892.56;6003046;23;20004;-92
2022/12/14 14:37:30;;;;;;;4.60;2.53;;;;;;;-145.06;100.00;60892.56;6003573;23;20008;-90
2022/12/14 14:40:09;;;;;;;3.22;2.25;;;;;;;-145.06;100.00;60892.56;6002961;23;20008;-90
2022/12/14 14:43:06;;;;;;;3.30;2.40;;;;;;;-145.06;100.00;60892.56;6003253;23;20009;-90
2022/12/14 14:46:00;;;;;;;3.67;2.30;;;;;;;-145.06;100.00;60892.56;6003086;23;20276;-91
2022/12/14 14:48:59;;;;;;;3.00;2.10;;;;;;;-145.06;100.00;60892.56;6003345;23;20001;-90
2022/12/14 14:52:32;;;;;;;4.07;2.40;;;;;;;-145.06;100.00;60892.56;6002197;23;20000;-91
2022/12/14 14:55:36;;;;;;;3.10;2.05;;;;;;;-145.06;100.00;60892.56;6003859;23;20000;-91
2022/12/14 14:58:56;;;;;;;2.53;1.73;;;;;;;-145.06;100.00;60892.56;6001715;23;20008;-89
2022/12/14 15:27:15;;;;;;;3.15;2.13;;;;;;;-145.06;100.00;60892.56;6033025;22;20343;-89
2022/12/14 17:03:21;;;;;;;3.45;2.28;;;;;;;-145.06;100.00;60892.56;5864518;23;20102;-90
2022/12/14 17:09:13;;;;;;;5.18;2.30;;;;;;;-145.06;100.00;60892.56;6017554;22;20385;-90
2022/12/14 17:16:22;;;;;;;;;;;;;;;;;;;;;
2022/12/14 17:19:52;;;;;;;3.70;2.47;;;;;;;-145.06;100.00;60892.56;6007795;23;20004;-90
2022/12/14 17:23:11;;;;;;;4.63;2.40;;;;;;;-145.06;100.00;60892.56;5989270;23;20147;-88
2022/12/14 17:26:39;;;;;;;4.70;2.67;;;;;;;-145.06;100.00;60892.56;5992532;23;20005;-88
2022/12/14 17:30:03;;;;;;;4.05;2.80;;;;;;;-145.06;100.00;60892.56;5994447;23;20087;-88
2022/12/14 17:32:43;;;;;;;4.18;2.70;;;;;;;-145.06;100.00;60892.56;5997654;23;20004;-89
2022/12/14 17:35:25;;;;;;;;;;;;;;;-145.06;100.00;60892.56;5998126;23;20424;-90
2022/12/14 17:38:33;;;;;;;3.85;2.20;;;;;;;-145.06;100.00;60892.56;5998305;23;19904;-88
2022/12/14 17:41:46;;;;;;;4.82;2.58;;;;;;;-145.06;100.00;60892.56;6005305;23;20012;-89
2022/12/14 17:44:34;;;;;;;3.72;2.28;;;;;;;-145.06;100.00;60892.56;5975410;23;20013;-89
2022/12/14 17:47:23;;;;;;;4.57;2.63;;;;;;;-145.06;100.00;60892.56;5997119;23;20447;-88
2022/12/14 17:50:37;;;;;;;4.13;2.30;;;;;;;-145.06;100.00;60892.56;5997002;23;20032;-90
2022/12/14 17:53:27;;;;;;;3.65;1.95;;;;;;;-145.06;100.00;60892.56;5998099;23;20008;-89
2022/12/14 17:56:29;;;;;;;4.70;2.65;;;;;;;-145.06;100.00;60892.56;5996993;23;19996;-88
2022/12/14 17:59:28;;;;;;;4.43;2.65;;;;;;;-145.06;100.00;60892.56;5889705;23;20005;-89
2022/12/14 18:03:01;;;;;;;5.45;2.90;;;;;;;-145.06;100.00;60892.56;5909970;23;20002;-89
2022/12/14 18:06:02;;;;;;;4.30;2.30;;;;;;;-145.06;100.00;60892.56;5977675;23;20017;-90
2022/12/14 18:08:44;;;;;;;3.60;2.40;;;;;;;-145.06;100.00;60892.56;6000584;23;20012;-89
2022/12/14 18:11:41;;;;;;;5.07;3.03;;;;;;;-145.06;100.00;60892.56;5999647;23;20004;-90
2022/12/14 18:14:58;;;;;;;4.67;2.70;;;;;;;-145.06;100.00;60892.56;5999606;23;20004;-90
2022/12/14 18:17:45;;;;;;;5.18;2.53;;;;;;;-145.06;100.00;60892.56;6000159;23;20012;-90
2022/12/14 18:20:31;;;;;;;5.20;3.08;;;;;;;-145.06;100.00;60892.56;6000692;23;20012;-90
2022/12/14 18:23:14;;;;;;;4.53;2.67;;;;;;;-145.06;100.00;60892.56;6000444;23;20439;-88
2022/12/14 18:25:56;;;;;;;3.87;2.53;;;;;;;-145.06;100.00;60892.56;5999597;23;20012;-90
2022/12/14 18:28:36;;;;;;;6.10;3.43;;;;;;;-145.06;100.00;60892.56;5999194;23;20005;-89
2022/12/14 18:31:18;;;;;;;5.23;3.00;;;;;;;-145.06;100.00;60892.56;5997491;23;20012;-88
2022/12/14 18:33:57;;;;;;;4.23;2.83;;;;;;;-145.06;100.00;60892.56;5998493;23;20008;-88